sensor_id;sensor_type;location;lat;lon;timestamp;pressure;altitude;pressure_sealevel;temperature;humidity
59829;BME280;45708;51.848;107.620;2023-09-19T00:00:40;95280.97;;;17.38;59.15
59829;BME280;45708;51.848;107.620;2023-09-19T00:05:41;95282.16;;;18.62;57.55
59829;BME280;45708;51.848;107.620;2023-09-19T00:10:42;95284.34;;;19.62;55.84
59829;BME280;45708;51.848;107.620;2023-09-19T00:15:46;95290.44;;;20.73;55.37
59829;BME280;45708;51.848;107.620;2023-09-19T00:20:47;95267.72;;;21.33;53.07
59829;BME280;45708;51.848;107.620;2023-09-19T00:25:48;95263.06;;;21.73;52.33
59829;BME280;45708;51.848;107.620;2023-09-19T00:30:49;95271.88;;;22.07;51.36
59829;BME280;45708;51.848;107.620;2023-09-19T00:35:53;95272.66;;;22.08;52.26
59829;BME280;45708;51.848;107.620;2023-09-19T00:40:55;95266.41;;;22.36;50.17
59829;BME280;45708;51.848;107.620;2023-09-19T00:45:56;95266.59;;;22.64;49.16
59829;BME280;45708;51.848;107.620;2023-09-19T00:51:02;95268.19;;;22.65;50.71
59829;BME280;45708;51.848;107.620;2023-09-19T00:56:03;95271.81;;;22.74;48.51
59829;BME280;45708;51.848;107.620;2023-09-19T01:01:05;95256.44;;;23.31;46.66
59829;BME280;45708;51.848;107.620;2023-09-19T01:06:06;95276.66;;;23.15;46.66
59829;BME280;45708;51.848;107.620;2023-09-19T01:22:16;95285.91;;;25.56;46.58
59829;BME280;45708;51.848;107.620;2023-09-19T01:32:21;95272.06;;;26.11;40.93
59829;BME280;45708;51.848;107.620;2023-09-19T01:37:23;95292.47;;;25.41;41.60
59829;BME280;45708;51.848;107.620;2023-09-19T01:42:43;95292.41;;;24.96;43.67
59829;BME280;45708;51.848;107.620;2023-09-19T01:47:54;95290.09;;;24.53;42.75
59829;BME280;45708;51.848;107.620;2023-09-19T01:53:02;95292.88;;;24.21;42.23
59829;BME280;45708;51.848;107.620;2023-09-19T01:58:08;95289.56;;;23.50;42.40
59829;BME280;45708;51.848;107.620;2023-09-19T02:03:15;95282.16;;;23.56;41.17
59829;BME280;45708;51.848;107.620;2023-09-19T02:08:20;95294.22;;;23.63;41.83
59829;BME280;45708;51.848;107.620;2023-09-19T02:13:22;95296.75;;;22.42;42.21
59829;BME280;45708;51.848;107.620;2023-09-19T02:18:23;95292.41;;;19.16;47.31
59829;BME280;45708;51.848;107.620;2023-09-19T02:23:24;95304.84;;;17.18;50.48
59829;BME280;45708;51.848;107.620;2023-09-19T02:28:28;95305.03;;;16.30;52.02
59829;BME280;45708;51.848;107.620;2023-09-19T02:33:29;95294.19;;;16.15;51.76
59829;BME280;45708;51.848;107.620;2023-09-19T02:38:30;95294.50;;;15.97;52.13
59829;BME280;45708;51.848;107.620;2023-09-19T02:43:31;95287.69;;;15.84;52.23
59829;BME280;45708;51.848;107.620;2023-09-19T02:48:31;95287.84;;;15.77;52.51
59829;BME280;45708;51.848;107.620;2023-09-19T02:53:32;95281.84;;;15.65;53.21
59829;BME280;45708;51.848;107.620;2023-09-19T02:58:33;95269.31;;;15.66;52.94
59829;BME280;45708;51.848;107.620;2023-09-19T03:03:34;95267.22;;;15.90;52.85
59829;BME280;45708;51.848;107.620;2023-09-19T03:08:35;95276.09;;;15.95;53.14
59829;BME280;45708;51.848;107.620;2023-09-19T03:13:36;95268.84;;;15.91;53.23
59829;BME280;45708;51.848;107.620;2023-09-19T03:18:37;95247.59;;;15.96;53.88
59829;BME280;45708;51.848;107.620;2023-09-19T03:23:38;95247.44;;;16.29;53.63
59829;BME280;45708;51.848;107.620;2023-09-19T03:28:38;95250.03;;;16.46;53.33
59829;BME280;45708;51.848;107.620;2023-09-19T03:33:39;95232.31;;;16.62;53.48
59829;BME280;45708;51.848;107.620;2023-09-19T03:38:40;95224.84;;;16.64;53.58
59829;BME280;45708;51.848;107.620;2023-09-19T03:43:41;95224.19;;;16.79;53.45
59829;BME280;45708;51.848;107.620;2023-09-19T03:48:41;95223.53;;;16.93;53.35
59829;BME280;45708;51.848;107.620;2023-09-19T03:53:42;95219.56;;;17.01;53.25
59829;BME280;45708;51.848;107.620;2023-09-19T03:58:43;95218.28;;;17.03;53.29
59829;BME280;45708;51.848;107.620;2023-09-19T04:03:44;95204.72;;;17.15;53.25
59829;BME280;45708;51.848;107.620;2023-09-19T04:08:45;95210.97;;;17.31;53.25
59829;BME280;45708;51.848;107.620;2023-09-19T04:13:46;95205.66;;;17.36;53.34
59829;BME280;45708;51.848;107.620;2023-09-19T04:18:46;95202.44;;;17.34;53.28
59829;BME280;45708;51.848;107.620;2023-09-19T04:23:47;95197.75;;;17.56;52.89
59829;BME280;45708;51.848;107.620;2023-09-19T04:28:48;95191.00;;;17.91;52.53
59829;BME280;45708;51.848;107.620;2023-09-19T04:33:49;95186.78;;;18.15;52.08
59829;BME280;45708;51.848;107.620;2023-09-19T04:38:50;95179.63;;;18.31;51.90
59829;BME280;45708;51.848;107.620;2023-09-19T04:43:51;95181.50;;;18.36;51.60
59829;BME280;45708;51.848;107.620;2023-09-19T04:48:52;95172.97;;;18.44;51.23
59829;BME280;45708;51.848;107.620;2023-09-19T04:53:52;95164.94;;;18.49;50.72
59829;BME280;45708;51.848;107.620;2023-09-19T04:58:54;95170.88;;;18.66;50.48
59829;BME280;45708;51.848;107.620;2023-09-19T05:03:54;95161.75;;;18.62;50.74
59829;BME280;45708;51.848;107.620;2023-09-19T05:08:55;95172.47;;;19.03;49.70
59829;BME280;45708;51.848;107.620;2023-09-19T05:13:56;95164.91;;;19.30;49.19
59829;BME280;45708;51.848;107.620;2023-09-19T05:18:57;95149.69;;;19.00;48.93
59829;BME280;45708;51.848;107.620;2023-09-19T05:23:58;95149.47;;;18.66;49.15
59829;BME280;45708;51.848;107.620;2023-09-19T05:28:59;95149.16;;;18.52;49.23
59829;BME280;45708;51.848;107.620;2023-09-19T05:34:00;95138.19;;;18.49;49.12
59829;BME280;45708;51.848;107.620;2023-09-19T05:39:01;95138.16;;;18.39;49.05
59829;BME280;45708;51.848;107.620;2023-09-19T05:44:02;95115.72;;;18.55;48.60
59829;BME280;45708;51.848;107.620;2023-09-19T05:49:03;95118.38;;;18.96;47.60
59829;BME280;45708;51.848;107.620;2023-09-19T05:54:04;95124.84;;;18.74;47.85
59829;BME280;45708;51.848;107.620;2023-09-19T05:59:05;95120.25;;;18.49;48.20
59829;BME280;45708;51.848;107.620;2023-09-19T06:04:06;95119.44;;;18.29;48.31
59829;BME280;45708;51.848;107.620;2023-09-19T06:09:07;95101.25;;;18.10;48.60
59829;BME280;45708;51.848;107.620;2023-09-19T06:14:07;95110.06;;;18.21;48.52
59829;BME280;45708;51.848;107.620;2023-09-19T06:19:09;95108.47;;;18.40;48.25
59829;BME280;45708;51.848;107.620;2023-09-19T06:24:10;95093.78;;;18.58;47.93
59829;BME280;45708;51.848;107.620;2023-09-19T06:29:10;95093.22;;;18.92;47.62
59829;BME280;45708;51.848;107.620;2023-09-19T06:34:11;95092.63;;;19.20;47.01
59829;BME280;45708;51.848;107.620;2023-09-19T06:39:12;95083.50;;;19.26;46.83
59829;BME280;45708;51.848;107.620;2023-09-19T06:44:13;95080.88;;;19.11;46.92
59829;BME280;45708;51.848;107.620;2023-09-19T06:49:14;95067.00;;;18.94;46.55
59829;BME280;45708;51.848;107.620;2023-09-19T06:54:14;95069.13;;;18.97;46.37
59829;BME280;45708;51.848;107.620;2023-09-19T06:59:15;95055.19;;;19.10;46.25
59829;BME280;45708;51.848;107.620;2023-09-19T07:04:16;95052.38;;;19.40;45.89
59829;BME280;45708;51.848;107.620;2023-09-19T07:09:17;95039.63;;;19.77;45.25
59829;BME280;45708;51.848;107.620;2023-09-19T07:14:18;95046.69;;;20.01;44.72
59829;BME280;45708;51.848;107.620;2023-09-19T07:19:19;95041.22;;;20.17;44.78
59829;BME280;45708;51.848;107.620;2023-09-19T07:24:20;95038.94;;;20.34;44.45
59829;BME280;45708;51.848;107.620;2023-09-19T07:29:22;95019.81;;;20.12;44.96
59829;BME280;45708;51.848;107.620;2023-09-19T07:34:23;95025.97;;;20.12;44.80
59829;BME280;45708;51.848;107.620;2023-09-19T07:39:24;95019.47;;;20.18;44.79
59829;BME280;45708;51.848;107.620;2023-09-19T07:44:25;95028.38;;;20.14;44.33
59829;BME280;45708;51.848;107.620;2023-09-19T07:49:25;95021.56;;;19.92;44.78
59829;BME280;45708;51.848;107.620;2023-09-19T07:54:26;95022.59;;;19.52;44.94
59829;BME280;45708;51.848;107.620;2023-09-19T07:59:27;95012.09;;;19.01;45.14
59829;BME280;45708;51.848;107.620;2023-09-19T08:04:28;95018.59;;;18.75;45.53
59829;BME280;45708;51.848;107.620;2023-09-19T08:09:29;95007.63;;;18.61;45.61
59829;BME280;45708;51.848;107.620;2023-09-19T08:14:30;95010.88;;;18.48;45.80
59829;BME280;45708;51.848;107.620;2023-09-19T08:19:31;95008.16;;;18.58;45.50
59829;BME280;45708;51.848;107.620;2023-09-19T08:24:32;95008.69;;;18.75;45.17
59829;BME280;45708;51.848;107.620;2023-09-19T08:29:33;95001.13;;;18.98;45.21
59829;BME280;45708;51.848;107.620;2023-09-19T08:34:34;94988.72;;;19.17;45.03
59829;BME280;45708;51.848;107.620;2023-09-19T08:39:34;94994.53;;;19.34;45.02
59829;BME280;45708;51.848;107.620;2023-09-19T08:44:37;94986.75;;;19.43;45.14
59829;BME280;45708;51.848;107.620;2023-09-19T08:50:00;94989.13;;;19.50;44.90
59829;BME280;45708;51.848;107.620;2023-09-19T08:55:02;94989.63;;;19.52;44.78
59829;BME280;45708;51.848;107.620;2023-09-19T09:00:04;94981.53;;;19.67;44.52
59829;BME280;45708;51.848;107.620;2023-09-19T09:05:06;94983.97;;;19.63;44.31
59829;BME280;45708;51.848;107.620;2023-09-19T09:10:08;94960.25;;;19.36;44.45
59829;BME280;45708;51.848;107.620;2023-09-19T09:15:09;94975.69;;;19.05;44.74
59829;BME280;45708;51.848;107.620;2023-09-19T09:20:10;94918.88;;;18.39;44.84
59829;BME280;45708;51.848;107.620;2023-09-19T09:25:11;94979.31;;;18.40;44.85
59829;BME280;45708;51.848;107.620;2023-09-19T09:30:35;94975.88;;;18.14;44.95
59829;BME280;45708;51.848;107.620;2023-09-19T09:35:50;94967.88;;;17.88;45.30
59829;BME280;45708;51.848;107.620;2023-09-19T09:40:52;94980.13;;;17.79;45.79
59829;BME280;45708;51.848;107.620;2023-09-19T09:46:13;94974.00;;;17.69;45.40
59829;BME280;45708;51.848;107.620;2023-09-19T09:51:14;94976.59;;;17.58;46.53
59829;BME280;45708;51.848;107.620;2023-09-19T09:56:14;94968.59;;;17.48;46.74
59829;BME280;45708;51.848;107.620;2023-09-19T10:01:15;94972.84;;;17.34;46.92
59829;BME280;45708;51.848;107.620;2023-09-19T10:06:17;94967.19;;;17.20;47.05
59829;BME280;45708;51.848;107.620;2023-09-19T10:11:18;94968.25;;;17.14;47.35
59829;BME280;45708;51.848;107.620;2023-09-19T10:16:19;94965.03;;;17.12;47.42
59829;BME280;45708;51.848;107.620;2023-09-19T10:21:21;94964.22;;;17.12;47.45
59829;BME280;45708;51.848;107.620;2023-09-19T10:26:22;94965.00;;;17.02;47.87
59829;BME280;45708;51.848;107.620;2023-09-19T10:31:25;94957.16;;;16.80;47.98
59829;BME280;45708;51.848;107.620;2023-09-19T10:36:32;94961.31;;;16.56;48.26
59829;BME280;45708;51.848;107.620;2023-09-19T10:41:34;94966.06;;;16.43;48.71
59829;BME280;45708;51.848;107.620;2023-09-19T10:46:36;94962.25;;;16.34;48.96
59829;BME280;45708;51.848;107.620;2023-09-19T10:51:42;94957.16;;;16.28;49.33
59829;BME280;45708;51.848;107.620;2023-09-19T10:56:48;94957.59;;;16.15;49.17
59829;BME280;45708;51.848;107.620;2023-09-19T11:01:52;94966.19;;;15.85;49.74
59829;BME280;45708;51.848;107.620;2023-09-19T11:07:09;94970.31;;;15.43;50.14
59829;BME280;45708;51.848;107.620;2023-09-19T11:12:11;94964.47;;;15.19;50.78
59829;BME280;45708;51.848;107.620;2023-09-19T11:22:12;94968.28;;;14.80;51.79
59829;BME280;45708;51.848;107.620;2023-09-19T11:27:14;94984.22;;;14.58;52.10
59829;BME280;45708;51.848;107.620;2023-09-19T11:42:50;94989.78;;;13.84;53.64
59829;BME280;45708;51.848;107.620;2023-09-19T11:47:50;94990.56;;;13.68;53.87
59829;BME280;45708;51.848;107.620;2023-09-19T11:52:52;94986.53;;;13.49;54.42
59829;BME280;45708;51.848;107.620;2023-09-19T11:57:55;94995.25;;;13.32;54.41
59829;BME280;45708;51.848;107.620;2023-09-19T12:02:58;94994.75;;;13.07;55.07
59829;BME280;45708;51.848;107.620;2023-09-19T12:08:08;94989.16;;;12.80;55.20
59829;BME280;45708;51.848;107.620;2023-09-19T12:13:10;94999.44;;;12.76;56.06
59829;BME280;45708;51.848;107.620;2023-09-19T12:18:29;95012.25;;;12.68;54.75
59829;BME280;45708;51.848;107.620;2023-09-19T12:23:30;95011.38;;;12.51;56.38
59829;BME280;45708;51.848;107.620;2023-09-19T12:28:31;95012.66;;;12.25;57.43
59829;BME280;45708;51.848;107.620;2023-09-19T12:38:48;94999.19;;;12.03;58.18
59829;BME280;45708;51.848;107.620;2023-09-19T12:43:49;95008.16;;;12.02;57.82
59829;BME280;45708;51.848;107.620;2023-09-19T12:49:19;95010.44;;;11.98;57.12
59829;BME280;45708;51.848;107.620;2023-09-19T12:54:20;95012.88;;;11.88;58.76
59829;BME280;45708;51.848;107.620;2023-09-19T12:59:29;95019.34;;;11.74;57.77
59829;BME280;45708;51.848;107.620;2023-09-19T13:04:30;95013.50;;;11.72;58.93
59829;BME280;45708;51.848;107.620;2023-09-19T13:09:31;95022.19;;;11.61;59.32
59829;BME280;45708;51.848;107.620;2023-09-19T13:14:32;95021.84;;;11.45;59.87
59829;BME280;45708;51.848;107.620;2023-09-19T13:19:45;95024.53;;;11.27;59.64
59829;BME280;45708;51.848;107.620;2023-09-19T13:24:48;95024.28;;;10.98;61.20
59829;BME280;45708;51.848;107.620;2023-09-19T13:29:49;95032.38;;;10.85;61.26
59829;BME280;45708;51.848;107.620;2023-09-19T13:34:50;95031.06;;;10.76;61.92
59829;BME280;45708;51.848;107.620;2023-09-19T13:39:53;95027.03;;;10.55;61.69
59829;BME280;45708;51.848;107.620;2023-09-19T13:44:54;95030.91;;;10.53;62.18
59829;BME280;45708;51.848;107.620;2023-09-19T13:49:55;95031.03;;;10.40;62.55
59829;BME280;45708;51.848;107.620;2023-09-19T13:54:56;95027.88;;;10.31;62.79
59829;BME280;45708;51.848;107.620;2023-09-19T13:59:57;95032.59;;;10.29;63.44
59829;BME280;45708;51.848;107.620;2023-09-19T14:04:58;95028.41;;;10.21;62.84
59829;BME280;45708;51.848;107.620;2023-09-19T14:09:58;95034.72;;;10.14;63.91
59829;BME280;45708;51.848;107.620;2023-09-19T14:14:59;95041.09;;;10.06;63.92
59829;BME280;45708;51.848;107.620;2023-09-19T14:20:00;95034.03;;;10.00;64.58
59829;BME280;45708;51.848;107.620;2023-09-19T14:25:01;95045.94;;;10.09;64.38
59829;BME280;45708;51.848;107.620;2023-09-19T14:30:02;95045.94;;;10.09;64.54
59829;BME280;45708;51.848;107.620;2023-09-19T14:35:03;95042.19;;;10.17;64.34
59829;BME280;45708;51.848;107.620;2023-09-19T14:40:04;95050.94;;;10.17;64.90
59829;BME280;45708;51.848;107.620;2023-09-19T14:45:05;95037.47;;;10.00;65.09
59829;BME280;45708;51.848;107.620;2023-09-19T14:50:07;95043.91;;;9.86;65.45
59829;BME280;45708;51.848;107.620;2023-09-19T14:55:08;95033.53;;;9.60;66.48
59829;BME280;45708;51.848;107.620;2023-09-19T15:00:09;95047.53;;;9.60;66.54
59829;BME280;45708;51.848;107.620;2023-09-19T15:05:11;95056.88;;;9.56;66.51
59829;BME280;45708;51.848;107.620;2023-09-19T15:10:12;95050.91;;;9.42;67.02
59829;BME280;45708;51.848;107.620;2023-09-19T15:15:13;95061.47;;;9.36;67.54
59829;BME280;45708;51.848;107.620;2023-09-19T15:20:14;95058.28;;;9.27;67.71
59829;BME280;45708;51.848;107.620;2023-09-19T15:25:15;95047.47;;;9.42;67.39
59829;BME280;45708;51.848;107.620;2023-09-19T15:30:16;95054.13;;;9.44;67.84
59829;BME280;45708;51.848;107.620;2023-09-19T15:35:17;95051.53;;;9.38;67.93
59829;BME280;45708;51.848;107.620;2023-09-19T15:40:17;95056.63;;;9.33;68.27
59829;BME280;45708;51.848;107.620;2023-09-19T15:45:18;95036.03;;;9.17;68.43
59829;BME280;45708;51.848;107.620;2023-09-19T15:50:19;95053.06;;;9.14;68.92
59829;BME280;45708;51.848;107.620;2023-09-19T15:55:20;95050.69;;;9.06;69.29
59829;BME280;45708;51.848;107.620;2023-09-19T16:00:20;95045.25;;;8.94;69.51
59829;BME280;45708;51.848;107.620;2023-09-19T16:05:21;95045.34;;;8.81;69.84
59829;BME280;45708;51.848;107.620;2023-09-19T16:10:22;95033.00;;;8.68;70.13
59829;BME280;45708;51.848;107.620;2023-09-19T16:15:23;95042.75;;;8.68;69.88
59829;BME280;45708;51.848;107.620;2023-09-19T16:20:23;95024.13;;;8.63;70.44
59829;BME280;45708;51.848;107.620;2023-09-19T16:25:24;95046.56;;;8.72;70.05
59829;BME280;45708;51.848;107.620;2023-09-19T16:30:25;95038.31;;;8.62;70.28
59829;BME280;45708;51.848;107.620;2023-09-19T16:35:26;95039.94;;;8.63;70.51
59829;BME280;45708;51.848;107.620;2023-09-19T16:40:27;95036.50;;;8.56;71.00
59829;BME280;45708;51.848;107.620;2023-09-19T16:45:27;95006.38;;;8.32;70.60
59829;BME280;45708;51.848;107.620;2023-09-19T16:50:28;95032.69;;;8.38;70.98
59829;BME280;45708;51.848;107.620;2023-09-19T16:55:29;95001.34;;;8.10;71.11
59829;BME280;45708;51.848;107.620;2023-09-19T17:00:30;95026.63;;;8.18;71.59
59829;BME280;45708;51.848;107.620;2023-09-19T17:05:31;95027.84;;;8.22;71.19
59829;BME280;45708;51.848;107.620;2023-09-19T17:10:32;95023.59;;;8.21;71.32
59829;BME280;45708;51.848;107.620;2023-09-19T17:15:33;95022.16;;;8.18;71.21
59829;BME280;45708;51.848;107.620;2023-09-19T17:20:34;95018.53;;;8.13;71.64
59829;BME280;45708;51.848;107.620;2023-09-19T17:25:34;95022.78;;;8.14;71.56
59829;BME280;45708;51.848;107.620;2023-09-19T17:30:36;95018.97;;;8.10;71.53
59829;BME280;45708;51.848;107.620;2023-09-19T17:35:37;95014.09;;;8.13;71.78
59829;BME280;45708;51.848;107.620;2023-09-19T17:40:40;95021.59;;;8.10;72.04
59829;BME280;45708;51.848;107.620;2023-09-19T17:45:41;95023.22;;;8.11;71.91
59829;BME280;45708;51.848;107.620;2023-09-19T17:50:42;95018.97;;;7.97;72.10
59829;BME280;45708;51.848;107.620;2023-09-19T17:55:43;95019.78;;;7.97;72.12
59829;BME280;45708;51.848;107.620;2023-09-19T18:00:44;95018.59;;;7.86;72.65
59829;BME280;45708;51.848;107.620;2023-09-19T18:05:45;95017.38;;;7.82;72.69
59829;BME280;45708;51.848;107.620;2023-09-19T18:10:50;95023.44;;;7.76;72.70
59829;BME280;45708;51.848;107.620;2023-09-19T18:15:51;95023.84;;;7.67;72.65
59829;BME280;45708;51.848;107.620;2023-09-19T18:20:52;95030.91;;;7.53;73.02
59829;BME280;45708;51.848;107.620;2023-09-19T18:25:57;95027.47;;;7.46;73.37
59829;BME280;45708;51.848;107.620;2023-09-19T18:30:58;95027.88;;;7.43;73.87
59829;BME280;45708;51.848;107.620;2023-09-19T18:36:03;95012.91;;;7.37;73.67
59829;BME280;45708;51.848;107.620;2023-09-19T18:41:14;95023.00;;;7.33;73.13
59829;BME280;45708;51.848;107.620;2023-09-19T18:46:18;95024.22;;;7.24;73.84
59829;BME280;45708;51.848;107.620;2023-09-19T18:51:19;95018.53;;;7.14;74.16
59829;BME280;45708;51.848;107.620;2023-09-19T18:56:19;95024.78;;;7.13;74.57
59829;BME280;45708;51.848;107.620;2023-09-19T19:01:20;94962.25;;;6.62;74.28
59829;BME280;45708;51.848;107.620;2023-09-19T19:06:21;95021.69;;;6.89;74.80
59829;BME280;45708;51.848;107.620;2023-09-19T19:11:22;95024.13;;;6.91;74.65
59829;BME280;45708;51.848;107.620;2023-09-19T19:16:23;95029.78;;;6.88;75.28
59829;BME280;45708;51.848;107.620;2023-09-19T19:21:23;95011.94;;;6.70;74.91
59829;BME280;45708;51.848;107.620;2023-09-19T19:26:24;95032.16;;;6.76;75.38
59829;BME280;45708;51.848;107.620;2023-09-19T19:31:25;95030.13;;;6.71;75.49
59829;BME280;45708;51.848;107.620;2023-09-19T19:36:26;95025.66;;;6.65;75.04
59829;BME280;45708;51.848;107.620;2023-09-19T19:41:27;95021.19;;;6.59;75.71
59829;BME280;45708;51.848;107.620;2023-09-19T19:46:27;95018.50;;;6.46;75.59
59829;BME280;45708;51.848;107.620;2023-09-19T19:51:28;95027.59;;;6.50;75.71
59829;BME280;45708;51.848;107.620;2023-09-19T19:56:30;95021.34;;;6.45;76.01
59829;BME280;45708;51.848;107.620;2023-09-19T20:01:31;95018.91;;;6.43;75.54
59829;BME280;45708;51.848;107.620;2023-09-19T20:06:31;95013.41;;;6.38;76.59
59829;BME280;45708;51.848;107.620;2023-09-19T20:11:32;95016.44;;;6.35;75.78
59829;BME280;45708;51.848;107.620;2023-09-19T20:32:05;95014.06;;;6.05;76.20
59829;BME280;45708;51.848;107.620;2023-09-19T20:37:05;95009.19;;;6.02;76.88
59829;BME280;45708;51.848;107.620;2023-09-19T20:42:07;95011.34;;;5.92;77.07
59829;BME280;45708;51.848;107.620;2023-09-19T20:47:07;95000.59;;;5.87;76.84
59829;BME280;45708;51.848;107.620;2023-09-19T20:52:08;95008.59;;;5.79;77.00
59829;BME280;45708;51.848;107.620;2023-09-19T20:57:09;95005.34;;;5.77;77.24
59829;BME280;45708;51.848;107.620;2023-09-19T21:02:10;94995.03;;;5.69;77.30
59829;BME280;45708;51.848;107.620;2023-09-19T21:07:11;94994.78;;;5.64;77.56
59829;BME280;45708;51.848;107.620;2023-09-19T21:12:12;94993.97;;;5.63;77.64
59829;BME280;45708;51.848;107.620;2023-09-19T21:17:12;94996.84;;;5.68;78.03
59829;BME280;45708;51.848;107.620;2023-09-19T21:22:13;95003.50;;;5.71;77.81
59829;BME280;45708;51.848;107.620;2023-09-19T21:27:14;95004.88;;;5.67;77.52
59829;BME280;45708;51.848;107.620;2023-09-19T21:32:15;95010.91;;;5.61;77.78
59829;BME280;45708;51.848;107.620;2023-09-19T21:37:16;95022.63;;;5.65;78.05
59829;BME280;45708;51.848;107.620;2023-09-19T21:42:17;95010.25;;;5.59;77.93
59829;BME280;45708;51.848;107.620;2023-09-19T21:47:17;95020.66;;;5.45;77.81
59829;BME280;45708;51.848;107.620;2023-09-19T21:52:18;95024.88;;;5.46;77.99
59829;BME280;45708;51.848;107.620;2023-09-19T21:57:19;95028.22;;;5.40;78.67
59829;BME280;45708;51.848;107.620;2023-09-19T22:02:20;95022.38;;;5.38;78.25
59829;BME280;45708;51.848;107.620;2023-09-19T22:07:20;95016.22;;;5.25;78.24
59829;BME280;45708;51.848;107.620;2023-09-19T22:12:21;95025.28;;;5.22;78.75
59829;BME280;45708;51.848;107.620;2023-09-19T22:17:22;95024.63;;;5.20;78.69
59829;BME280;45708;51.848;107.620;2023-09-19T22:22:23;95022.31;;;5.10;78.52
59829;BME280;45708;51.848;107.620;2023-09-19T22:27:23;95024.94;;;5.10;78.91
59829;BME280;45708;51.848;107.620;2023-09-19T22:32:24;95035.41;;;5.10;78.61
59829;BME280;45708;51.848;107.620;2023-09-19T22:37:25;95045.47;;;5.07;78.83
59829;BME280;45708;51.848;107.620;2023-09-19T22:42:26;95040.22;;;5.07;78.65
59829;BME280;45708;51.848;107.620;2023-09-19T22:47:27;95040.22;;;5.07;78.33
59829;BME280;45708;51.848;107.620;2023-09-19T22:52:27;95040.84;;;5.09;78.66
59829;BME280;45708;51.848;107.620;2023-09-19T22:57:28;95040.72;;;5.17;78.69
59829;BME280;45708;51.848;107.620;2023-09-19T23:02:29;95041.19;;;5.21;78.34
59829;BME280;45708;51.848;107.620;2023-09-19T23:07:30;95036.63;;;5.29;78.67
59829;BME280;45708;51.848;107.620;2023-09-19T23:12:30;95040.09;;;5.36;77.98
59829;BME280;45708;51.848;107.620;2023-09-19T23:17:31;95042.22;;;5.47;78.31
59829;BME280;45708;51.848;107.620;2023-09-19T23:22:32;95041.78;;;5.65;77.87
59829;BME280;45708;51.848;107.620;2023-09-19T23:27:33;95033.31;;;5.91;78.18
59829;BME280;45708;51.848;107.620;2023-09-19T23:32:34;95041.25;;;6.39;76.94
59829;BME280;45708;51.848;107.620;2023-09-19T23:37:35;95034.69;;;7.04;76.13
59829;BME280;45708;51.848;107.620;2023-09-19T23:42:36;95028.44;;;8.95;72.92
59829;BME280;45708;51.848;107.620;2023-09-19T23:47:37;95022.41;;;11.47;67.77
59829;BME280;45708;51.848;107.620;2023-09-19T23:52:38;95013.34;;;13.97;63.10
59829;BME280;45708;51.848;107.620;2023-09-19T23:57:39;95004.59;;;15.40;60.46
